Time;durP1;ratioP1;P1;durP2;ratioP2;P2;SDS_P1;SDS_P2;PMS_P1;PMS_P2;Temp;Humidity;BMP_temperature;BMP_pressure;BME280_temperature;BME280_humidity;BME280_pressure;Samples;Min_cycle;Max_cycle;Signal;HPM_P1;HPM_P2
2021/04/21 00:01:23;;;;;;;4.85;2.50;;;21.30;39.60;;;;;;5007027;28;20477;-72
2021/04/21 00:03:49;;;;;;;2.75;2.50;;;21.30;39.70;;;;;;5007545;28;20774;-72
2021/04/21 00:06:18;;;;;;;2.75;2.45;;;21.30;39.60;;;;;;5005024;28;20415;-72
2021/04/21 00:08:45;;;;;;;2.55;2.20;;;21.30;39.60;;;;;;4994740;28;20414;-70
2021/04/21 00:11:11;;;;;;;2.50;2.30;;;21.30;39.50;;;;;;5005436;28;20418;-70
2021/04/21 00:13:38;;;;;;;3.97;2.30;;;21.30;39.60;;;;;;5005695;28;21470;-71
2021/04/21 00:16:05;;;;;;;2.85;2.00;;;21.30;39.00;;;;;;5004787;28;20870;-72
2021/04/21 00:18:33;;;;;;;2.75;2.55;;;21.30;39.50;;;;;;5005262;28;20420;-71
2021/04/21 00:21:00;;;;;;;4.28;2.67;;;21.30;39.00;;;;;;5005473;28;20427;-71
2021/04/21 00:23:27;;;;;;;3.70;2.30;;;21.30;39.10;;;;;;5005730;28;20473;-72
2021/04/21 00:25:54;;;;;;;2.60;2.40;;;21.30;39.60;;;;;;5005216;28;20488;-71
2021/04/21 00:28:22;;;;;;;2.80;2.60;;;21.20;39.50;;;;;;5005631;28;20434;-72
2021/04/21 00:30:48;;;;;;;2.83;2.33;;;21.20;39.50;;;;;;5004053;28;20411;-72
2021/04/21 00:33:16;;;;;;;3.40;2.30;;;21.20;39.10;;;;;;5007060;28;20415;-72
2021/04/21 00:35:43;;;;;;;2.72;2.53;;;21.20;38.90;;;;;;5006195;28;20436;-71
2021/04/21 00:38:12;;;;;;;3.22;2.80;;;21.20;39.50;;;;;;5006080;28;20466;-72
2021/04/21 00:40:41;;;;;;;2.70;2.50;;;21.20;38.90;;;;;;5005058;28;20409;-71
2021/04/21 00:43:12;;;;;;;2.65;2.45;;;21.20;38.90;;;;;;5005138;28;20417;-72
2021/04/21 00:45:40;;;;;;;2.58;2.38;;;21.20;39.40;;;;;;5011989;28;20463;-73
2021/04/21 00:48:09;;;;;;;3.00;2.72;;;21.20;38.90;;;;;;5023642;28;20412;-71
2021/04/21 00:50:40;;;;;;;3.10;2.40;;;21.20;38.90;;;;;;5017141;28;20409;-71
2021/04/21 00:53:09;;;;;;;3.38;2.45;;;21.20;39.10;;;;;;5006514;28;20438;-72
2021/04/21 00:55:37;;;;;;;4.00;2.72;;;21.20;39.50;;;;;;5008550;28;20972;-71
2021/04/21 00:58:07;;;;;;;2.50;2.30;;;21.20;39.70;;;;;;5004813;28;20494;-70
2021/04/21 01:00:34;;;;;;;3.00;2.70;;;21.20;39.70;;;;;;5006713;28;20427;-71
2021/04/21 01:03:05;;;;;;;2.63;2.28;;;21.20;39.70;;;;;;5007008;28;20427;-71
2021/04/21 01:05:33;;;;;;;2.55;2.35;;;21.30;39.70;;;;;;5013213;28;21577;-71
2021/04/21 01:08:00;;;;;;;5.70;2.30;;;21.30;39.80;;;;;;5008030;28;21063;-71
2021/04/21 01:10:28;;;;;;;2.80;2.60;;;21.30;39.60;;;;;;5008476;28;20415;-71
2021/04/21 01:12:55;;;;;;;2.80;2.60;;;21.20;39.50;;;;;;5014635;28;20422;-70
2021/04/21 01:15:21;;;;;;;2.90;2.53;;;21.20;39.60;;;;;;5008488;28;20541;-72
2021/04/21 01:17:47;;;;;;;3.50;2.70;;;21.20;39.50;;;;;;5009442;28;20423;-70
2021/04/21 01:20:19;;;;;;;2.40;2.30;;;21.20;39.40;;;;;;4997780;28;20465;-71
2021/04/21 01:23:07;;;;;;;2.70;2.50;;;21.20;39.40;;;;;;4998294;28;20422;-71
2021/04/21 01:25:41;;;;;;;2.90;2.67;;;21.20;39.40;;;;;;5005582;28;20408;-70
2021/04/21 01:28:09;;;;;;;2.50;2.30;;;21.20;39.50;;;;;;5007488;28;20458;-71
2021/04/21 01:30:37;;;;;;;3.80;2.70;;;21.20;39.50;;;;;;5006795;28;20416;-69
2021/04/21 01:33:04;;;;;;;2.90;2.10;;;21.20;39.70;;;;;;5008715;28;20765;-70
2021/04/21 01:35:30;;;;;;;2.40;2.30;;;21.20;39.60;;;;;;5007840;28;20424;-69
2021/04/21 01:37:58;;;;;;;2.72;2.53;;;21.30;39.70;;;;;;5008195;28;20488;-70
2021/04/21 01:40:26;;;;;;;2.63;2.42;;;21.30;39.60;;;;;;5007672;28;20764;-70
2021/04/21 01:42:55;;;;;;;2.70;2.50;;;21.30;39.50;;;;;;5008207;28;20450;-71
2021/04/21 01:45:24;;;;;;;2.40;2.20;;;21.30;39.80;;;;;;5006384;28;20403;-70
2021/04/21 01:47:50;;;;;;;2.70;2.50;;;21.30;39.70;;;;;;5003021;28;20421;-70
2021/04/21 01:50:17;;;;;;;2.80;2.60;;;21.20;39.60;;;;;;5019146;28;20430;-70
2021/04/21 01:52:59;;;;;;;3.22;2.42;;;21.20;39.40;;;;;;5008276;28;20421;-70
2021/04/21 01:55:33;;;;;;;2.63;2.40;;;21.20;39.50;;;;;;5007500;28;20458;-70
2021/04/21 01:58:03;;;;;;;3.05;2.78;;;21.20;39.30;;;;;;5006868;28;20440;-70
2021/04/21 02:00:34;;;;;;;2.72;2.53;;;21.20;39.50;;;;;;5007746;28;20465;-70
2021/04/21 02:03:09;;;;;;;2.88;2.58;;;21.20;39.50;;;;;;5007770;28;20518;-70
2021/04/21 02:05:39;;;;;;;2.80;2.60;;;21.20;39.80;;;;;;5004452;28;20413;-72
2021/04/21 02:08:11;;;;;;;3.50;2.20;;;21.20;39.80;;;;;;5007791;28;20432;-70
2021/04/21 02:10:44;;;;;;;3.00;2.70;;;21.20;39.70;;;;;;5006686;28;20423;-71
2021/04/21 02:13:18;;;;;;;2.50;2.30;;;21.30;39.80;;;;;;5007423;28;20475;-69
2021/04/21 02:15:50;;;;;;;2.50;2.30;;;21.30;39.60;;;;;;4998326;28;20410;-71
2021/04/21 02:18:22;;;;;;;2.00;1.90;;;21.30;39.40;;;;;;4996474;28;20490;-70
2021/04/21 02:20:52;;;;;;;2.70;2.50;;;21.30;39.00;;;;;;5006099;28;20419;-71
2021/04/21 02:23:23;;;;;;;4.10;2.70;;;21.30;39.00;;;;;;5006170;28;20469;-70
2021/04/21 02:25:58;;;;;;;2.35;2.20;;;21.30;39.20;;;;;;5006272;28;20488;-70
2021/04/21 02:28:26;;;;;;;3.22;2.60;;;21.30;39.70;;;;;;5006596;28;20970;-70
2021/04/21 02:30:56;;;;;;;2.30;2.20;;;21.20;39.30;;;;;;5007539;28;20423;-70
2021/04/21 02:33:26;;;;;;;2.72;2.53;;;21.20;39.60;;;;;;5004624;28;20457;-70
2021/04/21 02:35:53;;;;;;;3.75;2.58;;;21.20;39.20;;;;;;5004581;28;20434;-70
2021/04/21 02:38:25;;;;;;;2.50;2.30;;;21.20;39.50;;;;;;5005277;28;20411;-72
2021/04/21 02:41:00;;;;;;;2.70;2.50;;;21.20;39.50;;;;;;5004391;28;20417;-70
2021/04/21 02:43:30;;;;;;;2.50;2.40;;;21.20;39.70;;;;;;5006724;28;21910;-70
2021/04/21 02:45:58;;;;;;;3.13;2.85;;;21.20;39.70;;;;;;5006620;28;20415;-69
2021/04/21 02:48:33;;;;;;;4.13;2.47;;;21.10;39.40;;;;;;5001603;28;20426;-70
2021/04/21 02:51:03;;;;;;;2.60;2.42;;;21.10;39.20;;;;;;5015548;28;20428;-69
2021/04/21 02:53:32;;;;;;;2.70;2.50;;;21.10;39.30;;;;;;5007072;28;20413;-68
2021/04/21 02:56:06;;;;;;;5.00;2.50;;;21.10;38.90;;;;;;5005975;28;20427;-71
2021/04/21 02:58:37;;;;;;;5.70;2.60;;;21.10;39.20;;;;;;5006728;28;20421;-71
2021/04/21 03:01:23;;;;;;;2.50;2.30;;;21.10;39.30;;;;;;5006203;28;20417;-71
2021/04/21 03:03:50;;;;;;;2.53;2.33;;;21.10;39.60;;;;;;5002050;28;20424;-71
2021/04/21 03:06:19;;;;;;;2.30;2.10;;;21.10;39.50;;;;;;5005947;28;20437;-68
2021/04/21 03:08:48;;;;;;;2.40;2.20;;;21.20;39.40;;;;;;5002142;28;20412;-69
2021/04/21 03:11:17;;;;;;;2.47;2.28;;;21.20;38.90;;;;;;4996145;28;20434;-70
2021/04/21 03:13:46;;;;;;;2.50;2.30;;;21.20;38.90;;;;;;5006081;28;20413;-70
2021/04/21 03:16:14;;;;;;;2.75;2.40;;;21.20;38.90;;;;;;5006651;28;20484;-70
2021/04/21 03:18:42;;;;;;;3.90;2.13;;;21.20;38.90;;;;;;5011370;28;20423;-71
2021/04/21 03:21:10;;;;;;;3.60;2.30;;;21.30;39.00;;;;;;5007425;28;20415;-70
2021/04/21 03:23:38;;;;;;;2.10;1.90;;;21.20;38.90;;;;;;5004699;28;20457;-69
2021/04/21 03:26:04;;;;;;;3.00;2.80;;;21.30;39.00;;;;;;5003432;28;20428;-70
2021/04/21 03:28:31;;;;;;;3.80;2.80;;;21.30;39.00;;;;;;5006095;28;20419;-69
2021/04/21 03:30:59;;;;;;;2.70;2.50;;;21.30;39.00;;;;;;5005665;28;20426;-71
2021/04/21 03:33:28;;;;;;;2.70;2.50;;;21.30;39.00;;;;;;5006307;28;20427;-69
2021/04/21 03:35:54;;;;;;;3.47;2.20;;;21.40;38.70;;;;;;5004840;28;20777;-71
2021/04/21 03:38:20;;;;;;;3.20;2.37;;;21.50;39.10;;;;;;5006759;28;20434;-70
2021/04/21 03:40:47;;;;;;;2.80;2.28;;;21.40;39.00;;;;;;5006426;28;20658;-68
2021/04/21 03:43:13;;;;;;;2.83;2.50;;;21.40;39.90;;;;;;5006500;28;20431;-69
2021/04/21 03:45:41;;;;;;;2.72;2.30;;;21.40;39.10;;;;;;5005092;28;20406;-70
2021/04/21 03:48:07;;;;;;;3.20;2.40;;;21.40;39.10;;;;;;5007575;28;20425;-69
2021/04/21 03:50:35;;;;;;;2.67;2.47;;;21.40;39.10;;;;;;4998047;28;20420;-70
2021/04/21 03:53:02;;;;;;;2.63;2.42;;;21.30;39.00;;;;;;5002907;28;20876;-70
2021/04/21 03:55:29;;;;;;;2.77;2.57;;;21.30;39.00;;;;;;5004442;28;20436;-70
2021/04/21 03:57:57;;;;;;;2.97;2.77;;;21.30;39.00;;;;;;5006550;28;20419;-70
2021/04/21 04:00:23;;;;;;;4.18;2.95;;;21.20;38.90;;;;;;5003702;28;20423;-72
2021/04/21 04:02:51;;;;;;;2.70;2.50;;;21.30;39.00;;;;;;4998890;28;20428;-70
2021/04/21 04:05:19;;;;;;;3.53;3.00;;;21.30;39.00;;;;;;5003920;28;20472;-70
2021/04/21 04:07:46;;;;;;;3.87;2.80;;;21.20;38.90;;;;;;4995373;28;20411;-71
2021/04/21 04:10:13;;;;;;;4.50;3.08;;;21.20;38.90;;;;;;5006495;28;21073;-70
2021/04/21 04:12:42;;;;;;;4.45;2.78;;;21.20;38.90;;;;;;5006263;28;20408;-71
2021/04/21 04:15:09;;;;;;;4.35;2.40;;;21.30;39.00;;;;;;5004776;28;22012;-69
2021/04/21 04:17:36;;;;;;;2.80;2.60;;;21.30;39.00;;;;;;5004834;28;21615;-70
2021/04/21 04:20:04;;;;;;;3.20;2.80;;;21.30;39.00;;;;;;5005191;28;20421;-70
2021/04/21 04:22:32;;;;;;;2.70;2.50;;;21.30;39.00;;;;;;5011268;28;20499;-71
2021/04/21 04:24:59;;;;;;;3.13;2.70;;;21.40;39.10;;;;;;4994776;28;21412;-74
2021/04/21 04:27:27;;;;;;;3.72;2.85;;;21.40;39.10;;;;;;5019379;28;20914;-70
2021/04/21 04:29:54;;;;;;;4.30;2.78;;;21.40;39.90;;;;;;5004951;28;20556;-72
2021/04/21 04:32:21;;;;;;;3.95;2.95;;;21.40;39.10;;;;;;5006046;28;20811;-70
2021/04/21 04:34:48;;;;;;;3.33;2.53;;;21.30;39.00;;;;;;5005592;28;20951;-71
2021/04/21 04:37:14;;;;;;;2.65;2.40;;;21.30;39.80;;;;;;5006223;28;20418;-72
2021/04/21 04:39:41;;;;;;;2.83;2.73;;;21.40;39.00;;;;;;5008250;28;20421;-71
2021/04/21 04:42:09;;;;;;;3.13;2.83;;;21.40;39.00;;;;;;5007232;28;20409;-72
2021/04/21 04:44:35;;;;;;;3.03;2.50;;;21.30;39.00;;;;;;5007768;28;20417;-72
2021/04/21 04:47:02;;;;;;;5.28;2.50;;;21.30;39.00;;;;;;5008729;28;20416;-71
2021/04/21 04:49:28;;;;;;;3.70;3.08;;;21.30;39.00;;;;;;5011950;28;20425;-70
2021/04/21 04:51:54;;;;;;;4.60;3.43;;;21.30;38.90;;;;;;5011777;28;20426;-71
2021/04/21 04:54:20;;;;;;;4.10;3.50;;;21.30;39.00;;;;;;5008511;28;20423;-71
2021/04/21 04:56:46;;;;;;;3.40;3.10;;;21.30;38.90;;;;;;5010051;28;20411;-70
2021/04/21 04:59:14;;;;;;;3.88;3.10;;;21.30;39.00;;;;;;5008589;28;20431;-71
2021/04/21 05:01:45;;;;;;;4.10;3.00;;;21.30;39.00;;;;;;5007764;28;20436;-71
2021/04/21 05:04:11;;;;;;;3.80;3.42;;;21.30;39.00;;;;;;5000444;28;20417;-71
2021/04/21 05:06:38;;;;;;;4.07;3.17;;;21.20;38.90;;;;;;5021265;28;20435;-70
2021/04/21 05:09:06;;;;;;;3.60;3.22;;;21.20;38.90;;;;;;5006778;28;21352;-71
2021/04/21 05:11:32;;;;;;;3.00;2.80;;;21.30;39.00;;;;;;4998288;28;21145;-71
2021/04/21 05:13:58;;;;;;;4.38;2.92;;;21.30;39.00;;;;;;5003607;28;20839;-70
2021/04/21 05:17:16;;;;;;;5.85;3.15;;;21.30;39.00;;;;;;5007290;28;20414;-71
2021/04/21 05:19:59;;;;;;;4.50;3.38;;;21.30;39.00;;;;;;5005152;28;20879;-71
2021/04/21 05:23:02;;;;;;;3.50;3.20;;;21.40;39.10;;;;;;5008776;28;20403;-71
2021/04/21 05:26:05;;;;;;;3.78;3.47;;;21.40;39.10;;;;;;5007920;28;20412;-72
2021/04/21 05:28:52;;;;;;;3.58;3.28;;;21.30;39.00;;;;;;5008433;28;21456;-71
2021/04/21 05:31:48;;;;;;;4.38;3.60;;;21.30;39.00;;;;;;4994319;28;20413;-71
2021/04/21 05:35:06;;;;;;;7.97;3.67;;;21.20;38.90;;;;;;5001238;28;20915;-71
2021/04/21 05:38:13;;;;;;;5.75;4.10;;;21.30;39.00;;;;;;4997825;28;20422;-70
2021/04/21 05:41:07;;;;;;;7.27;4.27;;;21.20;38.90;;;;;;5009487;28;20778;-72
2021/04/21 05:44:12;;;;;;;6.40;4.00;;;21.30;39.00;;;;;;4994250;28;20460;-69
2021/04/21 05:47:06;;;;;;;5.50;4.40;;;21.10;38.80;;;;;;5015715;28;20420;-70
2021/04/21 05:50:05;;;;;;;6.88;4.10;;;21.10;39.10;;;;;;5003446;28;20424;-70
2021/04/21 05:52:56;;;;;;;9.30;5.20;;;21.10;39.50;;;;;;4995921;28;21023;-69
2021/04/21 05:55:59;;;;;;;6.68;4.95;;;21.10;38.80;;;;;;5001888;28;20960;-72
2021/04/21 05:59:06;;;;;;;5.00;4.10;;;21.10;38.80;;;;;;5002163;28;20421;-71
2021/04/21 06:01:33;;;;;;;6.55;4.80;;;21.20;38.90;;;;;;4914927;29;20466;-70
2021/04/21 06:03:59;;;;;;;7.10;4.78;;;21.10;38.80;;;;;;4976757;28;20426;-70
2021/04/21 06:06:25;;;;;;;4.65;4.20;;;21.20;38.90;;;;;;5022967;28;20974;-70
2021/04/21 06:08:52;;;;;;;6.72;3.58;;;21.20;38.90;;;;;;4998155;28;20434;-70
2021/04/21 06:11:21;;;;;;;5.20;4.22;;;21.20;38.90;;;;;;5005013;28;20419;-70
2021/04/21 06:13:49;;;;;;;7.22;4.53;;;21.20;38.90;;;;;;4998541;28;20417;-70
2021/04/21 06:16:19;;;;;;;4.75;3.60;;;21.20;38.90;;;;;;5008022;28;20429;-71
2021/04/21 06:18:50;;;;;;;5.88;3.83;;;21.10;38.90;;;;;;5005426;28;20411;-70
2021/04/21 06:21:17;;;;;;;4.10;3.30;;;21.10;39.00;;;;;;4997391;28;20514;-71
2021/04/21 06:23:43;;;;;;;5.93;3.40;;;21.10;39.00;;;;;;5005507;28;20417;-71
2021/04/21 06:26:10;;;;;;;5.00;3.63;;;21.20;38.90;;;;;;5007423;28;20482;-71
2021/04/21 06:28:36;;;;;;;4.05;3.65;;;21.20;38.90;;;;;;5004972;28;20564;-70
2021/04/21 06:31:03;;;;;;;3.65;3.35;;;21.30;39.00;;;;;;5002998;28;20415;-70
2021/04/21 06:33:31;;;;;;;4.38;3.88;;;21.30;39.00;;;;;;5006724;28;20473;-70
2021/04/21 06:35:57;;;;;;;4.07;3.67;;;21.30;39.00;;;;;;5002351;28;21121;-73
2021/04/21 06:38:27;;;;;;;4.43;3.90;;;21.30;39.00;;;;;;5004513;28;20433;-71
2021/04/21 06:40:53;;;;;;;4.55;3.20;;;21.30;39.00;;;;;;5008590;28;20496;-71
2021/04/21 06:43:24;;;;;;;3.10;2.90;;;21.20;38.90;;;;;;5007851;28;20471;-70
2021/04/21 06:45:50;;;;;;;3.20;3.00;;;21.20;39.20;;;;;;4993193;28;20476;-70
2021/04/21 06:48:17;;;;;;;4.30;3.20;;;21.20;39.50;;;;;;5006357;28;20450;-70
2021/04/21 06:50:43;;;;;;;3.83;2.92;;;21.20;39.60;;;;;;5005342;28;20423;-70
2021/04/21 06:53:11;;;;;;;4.95;3.10;;;21.20;39.60;;;;;;5010820;28;20408;-70
2021/04/21 06:55:37;;;;;;;3.63;3.22;;;21.10;39.70;;;;;;5008247;28;20487;-70
2021/04/21 06:58:15;;;;;;;3.45;2.90;;;21.10;39.60;;;;;;4993979;28;21451;-70
2021/04/21 07:00:42;;;;;;;6.68;3.38;;;21.10;39.70;;;;;;5001450;28;20422;-71
2021/04/21 07:03:08;;;;;;;3.10;2.90;;;21.10;39.70;;;;;;4997349;28;20619;-70
2021/04/21 07:05:35;;;;;;;3.72;2.90;;;21.10;39.60;;;;;;4996835;28;20413;-70
2021/04/21 07:08:09;;;;;;;4.88;3.00;;;21.10;39.50;;;;;;5000677;28;20427;-70
2021/04/21 07:10:36;;;;;;;5.70;3.10;;;21.10;39.60;;;;;;5000530;28;20890;-70
2021/04/21 07:13:03;;;;;;;3.40;3.10;;;21.10;39.60;;;;;;4999999;28;21416;-71
2021/04/21 07:15:30;;;;;;;2.88;2.63;;;21.10;42.90;;;;;;4999953;28;20964;-70
2021/04/21 07:17:57;;;;;;;2.72;2.53;;;21.10;40.00;;;;;;4999247;28;20429;-71
2021/04/21 07:20:23;;;;;;;4.47;3.10;;;21.10;40.30;;;;;;4991421;28;20433;-69
2021/04/21 07:22:49;;;;;;;3.22;2.92;;;21.10;40.10;;;;;;4997376;28;20418;-71
2021/04/21 07:25:16;;;;;;;2.33;2.22;;;21.10;40.00;;;;;;4990730;28;20438;-71
2021/04/21 07:27:42;;;;;;;3.15;2.67;;;21.10;40.10;;;;;;4999043;28;21212;-70
2021/04/21 07:30:09;;;;;;;4.55;2.95;;;21.10;39.80;;;;;;4997587;28;20782;-70
2021/04/21 07:32:42;;;;;;;5.07;2.70;;;21.20;39.90;;;;;;4997006;28;20473;-70
2021/04/21 07:35:17;;;;;;;5.50;3.08;;;21.20;40.10;;;;;;5002408;28;20438;-70
2021/04/21 07:37:44;;;;;;;3.88;2.75;;;21.20;39.80;;;;;;5003006;28;20413;-70
2021/04/21 07:40:21;;;;;;;3.83;2.83;;;21.20;39.90;;;;;;4993900;28;20419;-71
2021/04/21 07:42:47;;;;;;;4.35;2.85;;;21.20;39.90;;;;;;4990500;28;20920;-70
2021/04/21 07:45:14;;;;;;;3.00;2.70;;;21.20;39.90;;;;;;4999217;28;21195;-70
2021/04/21 07:47:40;;;;;;;2.97;2.78;;;21.20;40.10;;;;;;5000925;28;20417;-71
2021/04/21 07:50:09;;;;;;;3.20;2.80;;;21.20;40.20;;;;;;4990848;28;20424;-70
2021/04/21 07:52:36;;;;;;;4.85;3.33;;;21.20;40.20;;;;;;5001553;28;20503;-70
2021/04/21 07:55:10;;;;;;;3.30;3.10;;;21.20;40.20;;;;;;5001719;28;20405;-69
2021/04/21 07:57:37;;;;;;;5.63;3.50;;;21.20;40.30;;;;;;5005257;28;20412;-69
2021/04/21 08:00:05;;;;;;;6.78;4.53;;;21.10;40.40;;;;;;4997717;28;20439;-70
2021/04/21 08:02:33;;;;;;;4.10;3.60;;;21.10;40.50;;;;;;4998719;28;20430;-72
2021/04/21 08:05:00;;;;;;;3.50;3.20;;;21.10;40.70;;;;;;4997711;28;20488;-70
2021/04/21 08:07:34;;;;;;;4.05;3.65;;;21.00;40.70;;;;;;5000890;28;20945;-70
2021/04/21 08:10:01;;;;;;;3.40;3.10;;;21.00;40.80;;;;;;5000330;28;20427;-70
2021/04/21 08:12:28;;;;;;;4.85;4.35;;;21.00;40.90;;;;;;4999003;28;20469;-71
2021/04/21 08:14:58;;;;;;;4.47;4.07;;;21.00;41.00;;;;;;5004919;28;20443;-70
2021/04/21 08:17:24;;;;;;;4.77;4.30;;;20.90;41.00;;;;;;5002778;28;20455;-71
2021/04/21 08:19:53;;;;;;;5.00;4.50;;;20.90;41.00;;;;;;5000529;28;20432;-69
2021/04/21 08:22:22;;;;;;;5.00;4.50;;;20.90;41.10;;;;;;5013732;28;20411;-71
2021/04/21 08:24:49;;;;;;;5.63;4.47;;;21.00;41.10;;;;;;5018357;28;20403;-72
2021/04/21 08:27:17;;;;;;;8.10;4.50;;;21.00;41.10;;;;;;5029466;28;20428;-70
2021/04/21 08:29:44;;;;;;;4.60;4.20;;;21.00;41.10;;;;;;5017267;28;20417;-70
2021/04/21 08:32:10;;;;;;;6.55;4.95;;;21.10;41.20;;;;;;4996609;28;20456;-69
2021/04/21 08:34:37;;;;;;;5.00;4.53;;;21.10;41.00;;;;;;4989741;28;20428;-70
2021/04/21 08:37:04;;;;;;;5.25;4.85;;;21.20;41.10;;;;;;4986678;28;20420;-69
2021/04/21 08:39:30;;;;;;;5.82;4.60;;;21.20;41.00;;;;;;5018111;28;20535;-69
2021/04/21 08:41:58;;;;;;;5.43;4.90;;;21.30;40.90;;;;;;5000816;28;20422;-70
2021/04/21 08:44:32;;;;;;;5.60;5.10;;;21.30;40.90;;;;;;5003606;28;20899;-70
2021/04/21 08:46:59;;;;;;;7.03;5.35;;;21.30;40.80;;;;;;5000592;28;20471;-71
2021/04/21 08:49:25;;;;;;;5.47;4.95;;;21.30;40.90;;;;;;4997838;28;20813;-70
2021/04/21 08:51:52;;;;;;;6.38;5.22;;;21.30;41.10;;;;;;5008315;28;20436;-69
2021/04/21 08:54:18;;;;;;;5.60;5.10;;;21.30;41.00;;;;;;5007482;28;21476;-70
2021/04/21 08:56:44;;;;;;;5.30;4.60;;;21.20;41.10;;;;;;5002533;28;20417;-71
2021/04/21 08:59:12;;;;;;;5.53;4.70;;;21.20;41.20;;;;;;5002482;28;20454;-70
2021/04/21 09:01:39;;;;;;;6.60;4.90;;;21.20;41.30;;;;;;4992716;28;20523;-72
2021/04/21 09:04:05;;;;;;;5.40;4.90;;;21.20;41.30;;;;;;4990877;28;20427;-71
2021/04/21 09:06:31;;;;;;;6.22;5.10;;;21.10;41.20;;;;;;5007215;28;20435;-71
2021/04/21 09:08:57;;;;;;;6.22;5.47;;;21.10;41.40;;;;;;4994890;28;20437;-70
2021/04/21 09:11:24;;;;;;;7.53;5.40;;;21.10;41.40;;;;;;5005197;28;20422;-67
2021/04/21 09:13:50;;;;;;;4.65;4.28;;;21.10;41.40;;;;;;5003015;28;20446;-71
2021/04/21 09:16:18;;;;;;;7.00;4.90;;;21.10;41.50;;;;;;4990181;28;20469;-70
2021/04/21 09:18:45;;;;;;;5.15;4.65;;;21.10;41.60;;;;;;5006137;28;20418;-71
2021/04/21 09:21:17;;;;;;;8.15;5.13;;;21.10;41.60;;;;;;4998388;28;20473;-70
2021/04/21 09:23:43;;;;;;;6.18;4.40;;;21.10;41.40;;;;;;5007855;28;20443;-70
2021/04/21 09:26:14;;;;;;;5.67;4.90;;;21.20;41.40;;;;;;5002539;28;20894;-70
2021/04/21 09:28:40;;;;;;;5.57;4.13;;;21.20;41.30;;;;;;5003847;28;20950;-71
2021/04/21 09:31:07;;;;;;;4.80;4.35;;;21.20;41.30;;;;;;5002408;28;20580;-70
2021/04/21 09:33:33;;;;;;;4.30;3.90;;;21.30;41.20;;;;;;5004463;28;20426;-70
2021/04/21 09:36:00;;;;;;;5.15;4.50;;;21.30;41.20;;;;;;5009238;28;20407;-72
2021/04/21 09:38:27;;;;;;;4.75;4.25;;;21.30;41.10;;;;;;5021150;28;20442;-70
2021/04/21 09:40:54;;;;;;;4.93;4.45;;;21.30;41.10;;;;;;5015713;28;20494;-70
2021/04/21 09:43:23;;;;;;;4.93;4.43;;;21.30;41.90;;;;;;5004306;28;20446;-70
2021/04/21 09:45:49;;;;;;;4.85;4.10;;;21.30;41.10;;;;;;4993311;28;20446;-71
2021/04/21 09:48:17;;;;;;;4.20;3.80;;;21.30;41.20;;;;;;5002662;28;20411;-71
2021/04/21 09:50:44;;;;;;;4.47;4.00;;;21.30;41.30;;;;;;5003565;28;20416;-71
2021/04/21 09:53:28;;;;;;;8.48;4.10;;;21.20;41.30;;;;;;5002322;28;21871;-70
2021/04/21 09:56:02;;;;;;;4.80;4.40;;;21.20;42.20;;;;;;5000934;28;21001;-69
2021/04/21 09:58:29;;;;;;;4.57;4.18;;;21.20;41.40;;;;;;4996490;28;20487;-70
2021/04/21 10:00:56;;;;;;;4.37;3.97;;;21.20;41.40;;;;;;5003922;28;20418;-70
2021/04/21 10:03:22;;;;;;;5.30;4.30;;;21.10;41.30;;;;;;4998605;28;20419;-69
2021/04/21 10:05:48;;;;;;;4.40;3.90;;;21.10;41.40;;;;;;5002076;28;20427;-70
2021/04/21 10:08:16;;;;;;;5.40;4.22;;;20.50;42.70;;;;;;5004612;28;20428;-70
2021/04/21 10:10:44;;;;;;;3.75;3.55;;;20.60;42.70;;;;;;5002832;28;20851;-71
2021/04/21 10:13:18;;;;;;;4.00;3.60;;;20.70;42.50;;;;;;4999253;28;20418;-71
2021/04/21 10:15:44;;;;;;;4.95;3.20;;;20.80;42.30;;;;;;5004869;28;20416;-72
2021/04/21 10:18:12;;;;;;;2.80;2.60;;;20.90;42.10;;;;;;5003927;28;20411;-71
2021/04/21 10:20:38;;;;;;;3.17;2.78;;;20.90;41.60;;;;;;5001820;28;20424;-71
2021/04/21 10:23:06;;;;;;;3.67;2.53;;;21.00;41.50;;;;;;4983171;28;20940;-71
2021/04/21 10:25:32;;;;;;;3.43;2.53;;;21.00;41.40;;;;;;5003585;28;20413;-70
2021/04/21 10:28:00;;;;;;;3.45;2.60;;;21.10;41.30;;;;;;5012100;28;20426;-71
2021/04/21 10:30:26;;;;;;;2.50;2.30;;;21.10;41.40;;;;;;5002481;28;20895;-70
2021/04/21 10:32:52;;;;;;;4.88;2.10;;;21.10;41.30;;;;;;4998493;28;21857;-72
2021/04/21 10:35:18;;;;;;;2.33;1.80;;;21.10;41.30;;;;;;4999746;28;20937;-72
2021/04/21 10:37:44;;;;;;;2.80;2.10;;;21.10;41.50;;;;;;4999385;28;20436;-71
2021/04/21 10:40:12;;;;;;;2.50;2.20;;;21.10;41.40;;;;;;5003807;28;20519;-70
2021/04/21 10:42:47;;;;;;;2.60;2.40;;;21.00;41.30;;;;;;4996088;28;20423;-72
2021/04/21 10:45:15;;;;;;;1.90;1.80;;;21.00;41.30;;;;;;5000404;28;20467;-69
2021/04/21 10:47:45;;;;;;;2.25;2.05;;;21.00;42.00;;;;;;5002318;28;20443;-71
2021/04/21 10:50:12;;;;;;;1.67;1.67;;;21.00;41.00;;;;;;5010261;28;21151;-70
2021/04/21 10:52:39;;;;;;;3.60;1.65;;;21.00;41.10;;;;;;4999278;28;20428;-70
2021/04/21 10:55:37;;;;;;;1.67;1.58;;;21.00;40.90;;;;;;5003044;28;20478;-71
2021/04/21 10:58:04;;;;;;;2.15;1.60;;;21.00;40.60;;;;;;5003761;28;20419;-71
2021/04/21 11:00:31;;;;;;;1.58;1.45;;;21.00;40.70;;;;;;4998340;28;20897;-70
2021/04/21 11:03:03;;;;;;;2.42;1.63;;;21.00;40.80;;;;;;5001591;28;20548;-70
2021/04/21 11:05:38;;;;;;;1.60;1.50;;;21.00;40.60;;;;;;5001373;28;20421;-70
2021/04/21 11:08:05;;;;;;;1.80;1.70;;;21.00;40.80;;;;;;5001966;28;20427;-70
2021/04/21 11:10:36;;;;;;;2.00;1.30;;;21.10;41.00;;;;;;4992570;28;21614;-70
2021/04/21 11:13:02;;;;;;;2.00;1.40;;;21.10;40.90;;;;;;4992827;28;20431;-71
2021/04/21 11:15:39;;;;;;;2.10;1.33;;;21.10;40.80;;;;;;5007000;28;20423;-71
2021/04/21 11:18:35;;;;;;;1.80;1.27;;;21.10;40.60;;;;;;4997891;28;20431;-70
2021/04/21 11:21:06;;;;;;;1.40;1.30;;;21.20;40.40;;;;;;4992817;28;20874;-70
2021/04/21 11:23:52;;;;;;;2.42;1.50;;;21.20;40.40;;;;;;5007885;28;21030;-71
2021/04/21 11:26:32;;;;;;;1.90;1.38;;;21.20;40.30;;;;;;4984442;28;20414;-70
2021/04/21 11:28:59;;;;;;;1.20;1.08;;;21.20;40.30;;;;;;5000729;28;20427;-70
2021/04/21 11:31:59;;;;;;;1.92;1.10;;;21.20;40.00;;;;;;4995709;28;21084;-72
2021/04/21 11:34:27;;;;;;;2.60;1.30;;;21.20;40.20;;;;;;5003234;28;20403;-71
2021/04/21 11:36:54;;;;;;;2.38;1.40;;;21.20;40.20;;;;;;4998362;28;20423;-72
2021/04/21 11:39:55;;;;;;;4.53;1.10;;;21.20;40.20;;;;;;5001910;28;20415;-71
2021/04/21 11:42:22;;;;;;;2.50;1.50;;;21.20;40.20;;;;;;4984426;28;20414;-70
2021/04/21 11:44:53;;;;;;;1.80;1.20;;;21.20;40.20;;;;;;4994015;28;20421;-71
2021/04/21 11:47:39;;;;;;;1.60;1.15;;;21.20;39.90;;;;;;4993028;28;20419;-70
2021/04/21 11:50:08;;;;;;;1.38;1.13;;;21.20;40.00;;;;;;5007779;28;20451;-71
2021/04/21 11:53:02;;;;;;;2.80;1.50;;;21.20;40.00;;;;;;4992783;28;20412;-71
2021/04/21 11:55:33;;;;;;;1.98;1.00;;;21.20;39.90;;;;;;4987082;28;20486;-70
2021/04/21 11:58:00;;;;;;;1.98;1.13;;;21.20;39.90;;;;;;4996277;28;20416;-71
2021/04/21 12:00:28;;;;;;;1.90;1.30;;;21.20;39.70;;;;;;5003919;28;20428;-71
2021/04/21 12:02:55;;;;;;;1.58;1.30;;;21.20;39.70;;;;;;4997527;28;20932;-71
2021/04/21 12:05:27;;;;;;;3.05;1.20;;;21.20;39.70;;;;;;5001648;28;20825;-70
2021/04/21 12:07:53;;;;;;;3.25;1.20;;;21.20;40.00;;;;;;4998699;28;21208;-70
2021/04/21 12:10:20;;;;;;;2.60;0.90;;;21.20;40.10;;;;;;5002014;28;20463;-71
2021/04/21 12:12:46;;;;;;;2.55;1.30;;;21.20;40.30;;;;;;4996844;28;20427;-71
2021/04/21 12:15:14;;;;;;;4.40;1.30;;;21.20;40.10;;;;;;5000506;28;20779;-71
2021/04/21 12:17:51;;;;;;;2.97;1.10;;;21.20;40.20;;;;;;4986532;28;20539;-72
2021/04/21 12:20:25;;;;;;;5.40;1.30;;;21.20;40.30;;;;;;5008589;28;20774;-70
2021/04/21 12:22:52;;;;;;;1.63;1.30;;;21.10;40.10;;;;;;4983840;28;20407;-75
2021/04/21 12:25:22;;;;;;;3.97;1.45;;;21.10;39.80;;;;;;5002022;28;20422;-72
2021/04/21 12:27:50;;;;;;;2.10;1.17;;;21.20;39.90;;;;;;4999661;28;20486;-71
2021/04/21 12:30:18;;;;;;;2.40;1.00;;;21.20;39.50;;;;;;5003517;28;20417;-71
2021/04/21 12:32:45;;;;;;;1.70;1.10;;;21.20;39.70;;;;;;4995979;28;20408;-70
2021/04/21 12:35:12;;;;;;;5.07;1.65;;;21.20;39.70;;;;;;4999716;28;20476;-72
2021/04/21 12:37:39;;;;;;;3.60;1.30;;;21.20;39.60;;;;;;5000050;28;20422;-72
2021/04/21 12:40:17;;;;;;;5.63;1.38;;;21.20;39.40;;;;;;5006703;28;20414;-71
2021/04/21 12:42:43;;;;;;;2.95;1.45;;;21.20;39.40;;;;;;4999411;28;20465;-70
2021/04/21 12:45:10;;;;;;;4.75;1.30;;;21.20;40.00;;;;;;5002238;28;20414;-71
2021/04/21 12:47:36;;;;;;;2.37;1.20;;;21.10;39.80;;;;;;4993977;28;20982;-69
2021/04/21 12:50:07;;;;;;;2.80;1.60;;;21.10;39.60;;;;;;5003698;28;20847;-71
2021/04/21 12:52:33;;;;;;;4.15;1.42;;;21.10;39.80;;;;;;4992941;28;21198;-71
2021/04/21 12:55:00;;;;;;;3.90;1.20;;;21.10;39.50;;;;;;4999918;28;20422;-71
2021/04/21 12:57:27;;;;;;;3.90;1.60;;;21.10;38.80;;;;;;5000824;28;20414;-71
2021/04/21 12:59:54;;;;;;;4.18;1.67;;;21.10;39.00;;;;;;5001957;28;20919;-70
2021/04/21 13:02:41;;;;;;;3.22;1.23;;;21.10;39.30;;;;;;4990851;28;20502;-71
2021/04/21 13:05:08;;;;;;;3.30;1.00;;;21.10;38.80;;;;;;5000364;28;20546;-71